Time;durP1;ratioP1;P1;durP2;ratioP2;P2;SDS_P1;SDS_P2;PMS_P1;PMS_P2;Temp;Humidity;BMP_temperature;BMP_pressure;BME280_temperature;BME280_humidity;BME280_pressure;Samples;Min_cycle;Max_cycle;Signal;HPM_P1;HPM_P2
2023/12/01 00:01:55;;;;;;;24.90;10.00;;;;;;;-5.70;56.41;100594.94;5027567;28;20598;-66
2023/12/01 00:04:21;;;;;;;25.75;10.02;;;;;;;-5.73;56.57;100600.78;5026204;28;20193;-66
2023/12/01 00:06:46;;;;;;;32.45;12.35;;;;;;;-5.73;56.49;100600.78;5023547;28;20119;-67
2023/12/01 00:09:12;;;;;;;21.73;9.13;;;;;;;-5.63;56.54;100607.81;5030721;28;20086;-67
2023/12/01 00:11:37;;;;;;;16.13;9.35;;;;;;;-5.56;56.57;100614.75;5023455;28;20119;-67
2023/12/01 00:14:03;;;;;;;21.33;8.48;;;;;;;-5.47;56.33;100608.16;5028535;28;20037;-67
2023/12/01 00:16:28;;;;;;;21.08;9.10;;;;;;;-5.35;56.17;100613.50;5025457;28;20056;-67
2023/12/01 00:18:54;;;;;;;19.30;9.07;;;;;;;-5.46;56.16;100612.41;5016584;28;20693;-67
2023/12/01 00:21:19;;;;;;;21.40;9.20;;;;;;;-5.40;56.05;100610.00;5029473;28;20043;-67
2023/12/01 00:23:45;;;;;;;18.40;7.35;;;;;;;-5.44;55.51;100605.66;5023058;28;20110;-67
2023/12/01 00:26:10;;;;;;;18.63;7.63;;;;;;;-5.53;55.83;100611.41;5030265;28;20179;-67
2023/12/01 00:28:36;;;;;;;19.05;8.68;;;;;;;-5.54;55.69;100617.34;5023293;28;20079;-69
2023/12/01 00:31:01;;;;;;;19.48;8.85;;;;;;;-5.52;55.86;100622.50;5029515;28;20033;-69
2023/12/01 00:33:27;;;;;;;22.42;9.32;;;;;;;-5.50;55.94;100628.47;5025655;28;21564;-70
2023/12/01 00:35:52;;;;;;;22.27;9.20;;;;;;;-5.61;55.94;100623.16;5026692;28;20040;-69
2023/12/01 00:38:20;;;;;;;21.08;8.85;;;;;;;-5.70;56.02;100625.50;5028503;28;20892;-71
2023/12/01 00:40:46;;;;;;;18.08;8.95;;;;;;;-5.66;55.78;100617.94;5025769;28;20048;-70
2023/12/01 00:43:12;;;;;;;22.30;9.23;;;;;;;-5.63;55.60;100620.56;5028719;28;20119;-70
2023/12/01 00:45:38;;;;;;;19.27;8.25;;;;;;;-5.55;55.90;100624.16;5024376;28;20041;-70
2023/12/01 00:48:04;;;;;;;22.88;10.15;;;;;;;-5.51;55.33;100627.59;5026877;28;20060;-70
2023/12/01 00:50:29;;;;;;;19.65;8.18;;;;;;;-5.65;55.42;100622.19;5010174;28;20040;-70
2023/12/01 00:52:54;;;;;;;18.95;8.48;;;;;;;-5.59;55.56;100627.44;5025416;28;20052;-69
2023/12/01 00:55:20;;;;;;;19.45;8.07;;;;;;;-5.76;55.51;100624.50;5027993;28;20347;-69
2023/12/01 00:57:45;;;;;;;23.40;8.10;;;;;;;-5.81;55.64;100633.72;5022241;28;20076;-68
2023/12/01 01:00:11;;;;;;;22.95;9.55;;;;;;;-6.01;55.83;100635.78;5029449;28;20024;-67
2023/12/01 01:02:37;;;;;;;22.65;8.68;;;;;;;-5.96;55.81;100630.81;5015489;28;20044;-68
2023/12/01 01:05:03;;;;;;;19.98;9.18;;;;;;;-5.94;55.95;100639.34;5026827;28;20025;-69
2023/12/01 01:07:28;;;;;;;20.80;9.18;;;;;;;-6.01;55.92;100640.88;5008516;28;20435;-69
2023/12/01 01:09:54;;;;;;;16.15;8.07;;;;;;;-6.00;55.90;100642.59;5023932;28;20620;-69
2023/12/01 01:12:19;;;;;;;20.75;9.55;;;;;;;-5.99;55.81;100641.78;5001078;28;20138;-70
2023/12/01 01:14:45;;;;;;;23.52;8.93;;;;;;;-6.02;55.88;100644.28;5037469;28;20033;-69
2023/12/01 01:17:10;;;;;;;18.67;8.63;;;;;;;-5.98;55.77;100643.50;5027215;28;20113;-70
2023/12/01 01:19:36;;;;;;;19.55;9.10;;;;;;;-6.08;55.56;100644.09;5023456;28;20053;-69
2023/12/01 01:22:01;;;;;;;26.85;9.13;;;;;;;-6.18;55.54;100643.00;5027521;28;20112;-69
2023/12/01 01:24:27;;;;;;;22.05;8.93;;;;;;;-6.17;55.45;100639.66;5018392;28;20139;-68
2023/12/01 01:26:52;;;;;;;22.05;9.30;;;;;;;-6.38;55.46;100634.00;5021928;28;20068;-68
2023/12/01 01:29:18;;;;;;;20.73;8.40;;;;;;;-6.42;55.43;100640.72;5028898;28;20099;-69
2023/12/01 01:31:44;;;;;;;21.90;8.80;;;;;;;-6.34;55.47;100640.91;5022790;28;20167;-72
2023/12/01 01:34:09;;;;;;;22.10;8.82;;;;;;;-6.34;55.39;100640.06;5027652;28;20052;-63
2023/12/01 01:36:35;;;;;;;19.40;8.52;;;;;;;-6.38;55.43;100645.03;5026005;28;20392;-65
2023/12/01 01:39:00;;;;;;;21.20;8.85;;;;;;;-6.59;55.52;100644.50;5025418;28;20056;-65
2023/12/01 01:41:25;;;;;;;25.00;9.48;;;;;;;-6.73;56.07;100648.31;5011730;28;20592;-66
2023/12/01 01:43:51;;;;;;;22.00;7.90;;;;;;;-6.81;56.32;100643.91;5020227;28;20055;-67
2023/12/01 01:46:17;;;;;;;19.77;8.55;;;;;;;-6.71;56.24;100661.94;5030094;28;20104;-68
2023/12/01 01:48:43;;;;;;;25.40;10.38;;;;;;;-6.81;55.83;100659.16;5020653;28;20423;-68
2023/12/01 01:51:09;;;;;;;21.73;8.50;;;;;;;-6.96;56.00;100658.72;5030905;28;20037;-66
2023/12/01 01:53:41;;;;;;;25.58;8.93;;;;;;;-7.05;56.13;100663.53;5026739;28;20562;-68
2023/12/01 01:56:08;;;;;;;24.27;10.20;;;;;;;-7.10;56.48;100670.19;5029246;28;20583;-68
2023/12/01 01:58:33;;;;;;;29.38;9.13;;;;;;;-7.09;56.51;100667.69;5016113;28;20126;-69
2023/12/01 02:00:59;;;;;;;26.83;9.57;;;;;;;-7.16;56.60;100670.00;5009457;28;20607;-66
2023/12/01 02:03:25;;;;;;;21.10;9.05;;;;;;;-7.23;56.71;100674.03;5026343;28;20047;-66
2023/12/01 02:05:50;;;;;;;22.25;9.05;;;;;;;-7.25;56.64;100666.34;5024372;28;20037;-65
2023/12/01 02:08:29;;;;;;;19.73;8.63;;;;;;;-7.27;56.70;100667.13;5030003;28;20037;-66
2023/12/01 02:10:56;;;;;;;24.77;9.95;;;;;;;-7.33;56.75;100665.28;5031016;28;20043;-66
2023/12/01 02:13:28;;;;;;;20.15;8.35;;;;;;;-7.25;56.45;100657.88;5026115;28;20703;-66
2023/12/01 02:15:53;;;;;;;24.63;7.93;;;;;;;-7.30;56.34;100657.75;5040365;28;20033;-66
2023/12/01 02:18:24;;;;;;;21.45;8.95;;;;;;;-7.28;55.95;100655.25;5027618;28;20107;-66
2023/12/01 02:20:54;;;;;;;17.05;8.48;;;;;;;-7.24;56.30;100652.00;5025386;28;20984;-65
2023/12/01 02:23:22;;;;;;;18.90;8.27;;;;;;;-7.29;56.16;100658.59;5026772;28;20618;-67
2023/12/01 02:25:47;;;;;;;17.25;7.40;;;;;;;-7.27;56.04;100662.94;5006860;28;20488;-66
2023/12/01 02:28:14;;;;;;;19.15;8.23;;;;;;;-7.23;56.24;100663.88;5032840;28;20087;-66
2023/12/01 02:30:42;;;;;;;24.75;9.45;;;;;;;-7.32;56.09;100664.47;5029659;28;20111;-66
2023/12/01 02:33:12;;;;;;;18.58;9.05;;;;;;;-7.43;56.36;100665.81;5033471;28;20036;-66
2023/12/01 02:35:38;;;;;;;16.20;8.43;;;;;;;-7.30;56.08;100665.38;5029515;28;20029;-67
2023/12/01 02:38:03;;;;;;;19.80;7.82;;;;;;;-7.27;56.11;100662.94;5018460;28;20105;-65
2023/12/01 02:40:29;;;;;;;21.48;9.02;;;;;;;-7.29;56.29;100671.31;5047765;28;20041;-66
2023/12/01 02:42:55;;;;;;;17.15;8.02;;;;;;;-7.32;56.15;100672.06;5024935;28;20065;-67
2023/12/01 02:45:21;;;;;;;19.38;8.02;;;;;;;-7.32;56.01;100668.69;5022210;28;20521;-65
2023/12/01 02:47:50;;;;;;;17.67;7.88;;;;;;;-7.38;56.03;100677.00;5026734;28;20091;-65
2023/12/01 02:50:19;;;;;;;17.95;8.20;;;;;;;-7.37;56.14;100676.16;5028174;28;20033;-64
2023/12/01 02:52:44;;;;;;;23.17;8.80;;;;;;;-7.29;56.00;100674.72;5026623;28;20245;-64
2023/12/01 02:55:11;;;;;;;20.00;8.57;;;;;;;-7.47;55.92;100679.22;5032486;28;20040;-67
2023/12/01 02:57:39;;;;;;;16.08;7.20;;;;;;;-7.59;56.12;100676.31;5029049;28;20053;-63
2023/12/01 03:00:08;;;;;;;16.05;6.70;;;;;;;-7.65;56.31;100677.88;5029979;28;20151;-67
2023/12/01 03:02:34;;;;;;;24.00;7.80;;;;;;;-7.53;56.22;100684.13;5029927;28;20041;-70
2023/12/01 03:04:59;;;;;;;23.48;8.60;;;;;;;-7.47;56.00;100679.22;5025275;28;20589;-68
2023/12/01 03:07:25;;;;;;;22.48;7.60;;;;;;;-7.51;56.06;100678.28;5021079;28;20028;-69
2023/12/01 03:09:51;;;;;;;20.38;8.45;;;;;;;-7.54;56.13;100682.41;5026052;28;20515;-67
2023/12/01 03:12:16;;;;;;;21.42;8.30;;;;;;;-7.60;56.04;100682.19;5030258;28;20041;-67
2023/12/01 03:14:42;;;;;;;20.60;8.25;;;;;;;-7.64;55.96;100683.78;5030648;28;20056;-68
2023/12/01 03:17:07;;;;;;;16.58;7.88;;;;;;;-7.68;56.17;100685.38;5030528;28;20586;-70
2023/12/01 03:19:32;;;;;;;23.85;9.35;;;;;;;-7.71;56.14;100685.28;5018873;28;20052;-73
2023/12/01 03:21:58;;;;;;;22.63;9.77;;;;;;;-7.68;56.09;100674.34;5031494;28;20040;-72
2023/12/01 03:24:23;;;;;;;18.52;7.85;;;;;;;-7.68;56.02;100682.81;5023598;28;20049;-70
2023/12/01 03:26:49;;;;;;;27.60;8.80;;;;;;;-7.77;56.03;100681.69;5011190;28;20064;-71
2023/12/01 03:29:14;;;;;;;21.25;9.35;;;;;;;-7.71;55.83;100676.81;5032735;28;20041;-72
2023/12/01 03:31:40;;;;;;;24.52;9.77;;;;;;;-7.60;55.95;100677.13;5032301;28;20435;-72
2023/12/01 03:34:06;;;;;;;20.23;7.93;;;;;;;-7.52;56.09;100675.69;5023431;28;20045;-73
2023/12/01 03:36:32;;;;;;;18.40;8.65;;;;;;;-7.65;55.97;100674.44;5034263;28;20144;-70
2023/12/01 03:38:57;;;;;;;19.55;8.23;;;;;;;-7.44;55.61;100674.25;5010069;28;20449;-72
2023/12/01 03:41:23;;;;;;;21.35;9.05;;;;;;;-7.51;55.55;100674.91;5034242;28;20079;-72
2023/12/01 03:43:48;;;;;;;26.40;9.52;;;;;;;-7.64;55.59;100682.13;5009825;28;20041;-73
2023/12/01 03:46:16;;;;;;;22.55;8.18;;;;;;;-7.70;55.61;100678.53;5019030;28;20032;-70
2023/12/01 03:48:41;;;;;;;24.13;10.30;;;;;;;-7.81;55.62;100677.31;5030996;28;20672;-67
2023/12/01 03:51:11;;;;;;;27.23;10.80;;;;;;;-7.84;55.88;100680.63;5009585;28;20446;-66
2023/12/01 03:53:37;;;;;;;17.17;7.60;;;;;;;-7.63;55.75;100678.78;5017743;28;20045;-68
2023/12/01 03:56:04;;;;;;;34.63;9.98;;;;;;;-7.51;55.52;100687.59;5026764;28;20032;-69
2023/12/01 03:58:29;;;;;;;20.48;8.73;;;;;;;-7.71;55.54;100685.28;5028239;28;20540;-74
2023/12/01 04:00:55;;;;;;;24.77;8.13;;;;;;;-7.73;55.59;100681.81;5026227;28;20047;-75
2023/12/01 04:03:23;;;;;;;23.02;8.02;;;;;;;-7.71;55.50;100687.81;5029480;28;20128;-75
2023/12/01 04:05:50;;;;;;;22.45;8.98;;;;;;;-7.67;55.51;100687.09;5026044;28;20529;-75
2023/12/01 04:08:15;;;;;;;20.42;8.30;;;;;;;-7.72;55.42;100691.16;5046267;28;20051;-75
2023/12/01 04:10:42;;;;;;;21.40;8.60;;;;;;;-7.77;55.31;100680.00;5024668;28;20029;-72
2023/12/01 04:13:08;;;;;;;20.23;7.93;;;;;;;-7.87;55.33;100677.97;5025222;28;20047;-72
2023/12/01 04:15:36;;;;;;;17.85;8.18;;;;;;;-7.94;55.36;100679.47;5014248;28;20066;-72
2023/12/01 04:18:06;;;;;;;19.05;7.53;;;;;;;-7.96;55.25;100683.63;5010540;28;20075;-73
2023/12/01 04:20:39;;;;;;;20.83;8.85;;;;;;;-7.98;55.37;100674.22;5027342;28;20152;-73
2023/12/01 04:23:09;;;;;;;18.63;7.47;;;;;;;-8.05;55.49;100681.66;5024740;28;20606;-74
2023/12/01 04:25:39;;;;;;;17.52;7.60;;;;;;;-7.99;55.33;100682.66;5037048;28;20068;-73
2023/12/01 04:28:06;;;;;;;25.10;8.48;;;;;;;-8.03;55.23;100690.97;5024951;28;20519;-74
2023/12/01 04:30:32;;;;;;;27.33;9.68;;;;;;;-7.95;55.51;100694.63;5031312;28;20033;-73
2023/12/01 04:32:59;;;;;;;18.48;8.02;;;;;;;-7.79;55.48;100691.78;5007634;28;20040;-73
2023/12/01 04:35:29;;;;;;;23.48;9.77;;;;;;;-7.63;55.51;100693.13;5031103;28;20707;-74
2023/12/01 04:37:56;;;;;;;24.42;9.65;;;;;;;-7.60;55.19;100693.22;5025587;28;20057;-71
2023/12/01 04:40:22;;;;;;;23.52;9.00;;;;;;;-7.74;55.39;100700.38;5030823;28;20130;-72
2023/12/01 04:42:50;;;;;;;19.77;8.80;;;;;;;-7.73;55.57;100707.19;5028493;28;20056;-72
2023/12/01 04:45:17;;;;;;;18.67;7.75;;;;;;;-7.69;55.82;100698.88;5015724;28;20479;-72
2023/12/01 04:47:45;;;;;;;21.42;9.20;;;;;;;-7.51;56.10;100705.34;5018407;28;20662;-73
2023/12/01 04:50:15;;;;;;;21.15;7.32;;;;;;;-7.33;56.01;100695.75;5024389;28;21166;-72
2023/12/01 04:52:52;;;;;;;22.70;8.60;;;;;;;-7.24;55.75;100696.03;5028777;28;20061;-73
2023/12/01 04:55:20;;;;;;;21.15;7.90;;;;;;;-7.24;55.42;100702.78;5028417;28;20114;-72
2023/12/01 04:57:47;;;;;;;25.27;9.00;;;;;;;-7.25;55.62;100707.00;5028328;28;20535;-73
2023/12/01 05:00:21;;;;;;;23.13;8.95;;;;;;;-7.21;55.68;100707.97;5027455;28;20681;-74
2023/12/01 05:02:48;;;;;;;20.52;7.93;;;;;;;-7.15;55.89;100707.28;5028363;28;20041;-73
2023/12/01 05:05:18;;;;;;;19.13;9.15;;;;;;;-6.94;55.67;100707.91;5026641;28;20067;-71
2023/12/01 05:07:44;;;;;;;21.38;8.35;;;;;;;-6.96;55.19;100709.53;5026168;28;20048;-72
2023/12/01 05:10:14;;;;;;;19.80;9.13;;;;;;;-6.93;55.15;100704.56;5003047;28;20082;-72
2023/12/01 05:12:42;;;;;;;24.13;9.50;;;;;;;-6.95;55.29;100701.13;5011259;28;20041;-73
2023/12/01 05:15:15;;;;;;;26.88;10.05;;;;;;;-6.93;55.72;100707.09;5023133;28;20077;-69
2023/12/01 05:18:07;;;;;;;25.05;9.38;;;;;;;-6.92;55.98;100706.28;5028222;28;20045;-72
2023/12/01 05:20:33;;;;;;;;;;;;;;;-6.91;56.02;100717.28;5008110;28;20044;-66
2023/12/01 05:23:09;;;;;;;15.57;6.70;;;;;;;-6.65;55.84;100711.28;5022388;28;19924;-67
2023/12/01 05:25:37;;;;;;;26.05;11.02;;;;;;;-6.59;55.64;100715.69;5029197;28;20079;-69
2023/12/01 05:28:05;;;;;;;24.98;10.18;;;;;;;-6.55;55.46;100722.59;5023683;28;20111;-65
2023/12/01 05:30:36;;;;;;;19.33;8.25;;;;;;;-6.39;55.51;100719.63;5030076;28;20106;-65
2023/12/01 05:33:04;;;;;;;23.67;9.98;;;;;;;-6.28;55.54;100721.63;5024748;28;20057;-66
2023/12/01 05:35:31;;;;;;;23.05;9.63;;;;;;;-6.18;55.41;100719.31;5018288;28;20033;-66
2023/12/01 05:37:58;;;;;;;26.55;9.75;;;;;;;-6.25;54.98;100727.63;5024351;28;20094;-66
2023/12/01 05:40:28;;;;;;;22.10;9.38;;;;;;;-6.33;55.31;100723.16;5031367;28;20124;-67
2023/12/01 05:42:56;;;;;;;30.00;10.13;;;;;;;-6.15;55.43;100726.22;5024408;28;20056;-67
2023/12/01 05:45:24;;;;;;;16.95;9.07;;;;;;;-6.10;55.40;100722.09;5030604;28;20044;-68
2023/12/01 05:47:54;;;;;;;24.85;10.48;;;;;;;-5.93;55.04;100719.09;5027790;28;20979;-73
2023/12/01 05:50:24;;;;;;;25.98;9.35;;;;;;;-5.80;54.93;100728.78;5029970;28;20025;-70
2023/12/01 05:52:52;;;;;;;22.35;10.23;;;;;;;-5.81;54.67;100727.06;5026584;28;20074;-64
2023/12/01 05:55:21;;;;;;;20.67;9.25;;;;;;;-5.85;54.62;100737.97;5023303;28;20536;-66
2023/12/01 05:58:01;;;;;;;21.38;9.57;;;;;;;-5.89;54.62;100731.94;5016513;28;20530;-65
2023/12/01 06:00:31;;;;;;;22.45;9.02;;;;;;;-5.86;54.61;100732.03;5029478;28;20127;-69
2023/12/01 06:02:58;;;;;;;20.40;9.13;;;;;;;-5.84;54.83;100734.59;5024650;28;20151;-66
2023/12/01 06:05:24;;;;;;;26.38;9.25;;;;;;;-5.76;54.93;100738.22;5031463;28;20037;-66
2023/12/01 06:07:54;;;;;;;23.42;11.15;;;;;;;-5.75;54.74;100734.81;5020502;28;20073;-66
2023/12/01 06:10:21;;;;;;;21.33;8.63;;;;;;;-5.73;54.93;100740.81;5009397;28;20064;-72
2023/12/01 06:12:47;;;;;;;24.33;10.20;;;;;;;-5.71;55.15;100738.31;5032466;28;20116;-72
2023/12/01 06:15:14;;;;;;;25.50;10.40;;;;;;;-5.61;54.68;100741.13;5028785;28;20025;-71
2023/12/01 06:17:42;;;;;;;24.90;8.95;;;;;;;-5.51;54.68;100746.44;5021738;28;20041;-71
2023/12/01 06:20:19;;;;;;;25.77;10.05;;;;;;;-5.39;54.75;100749.31;5029351;28;20036;-70
2023/12/01 06:22:52;;;;;;;27.23;11.45;;;;;;;-5.23;54.73;100746.28;5035195;28;20041;-71
2023/12/01 06:25:20;;;;;;;25.23;11.13;;;;;;;-5.13;54.70;100753.28;5027438;28;20045;-70
2023/12/01 06:27:46;;;;;;;30.20;12.18;;;;;;;-5.15;54.69;100747.31;5029366;28;20712;-71
2023/12/01 06:30:13;;;;;;;27.17;12.40;;;;;;;-5.04;54.15;100756.88;5027837;28;20091;-71
2023/12/01 06:32:45;;;;;;;25.60;11.25;;;;;;;-5.05;53.87;100750.06;5019734;28;20037;-71
2023/12/01 06:35:12;;;;;;;27.08;10.77;;;;;;;-5.09;54.17;100749.13;5028057;28;20028;-70
2023/12/01 06:37:39;;;;;;;30.90;13.90;;;;;;;-5.21;54.07;100759.91;5029510;28;20508;-73
2023/12/01 06:40:12;;;;;;;24.27;10.80;;;;;;;-5.21;54.17;100754.81;5028840;28;20043;-73
2023/12/01 06:42:39;;;;;;;26.15;9.23;;;;;;;-5.20;54.37;100761.63;5030728;28;20127;-73
2023/12/01 06:45:06;;;;;;;23.02;10.48;;;;;;;-5.18;54.40;100765.06;5023483;28;20041;-67
2023/12/01 06:47:32;;;;;;;28.85;12.25;;;;;;;-5.17;54.72;100771.91;5029348;28;20048;-69
2023/12/01 06:49:58;;;;;;;28.52;12.70;;;;;;;-5.14;54.82;100771.97;5029937;28;20029;-69
2023/12/01 06:52:23;;;;;;;25.73;11.73;;;;;;;-5.12;54.77;100777.09;5028316;28;20267;-69
2023/12/01 06:54:49;;;;;;;26.25;10.20;;;;;;;-5.18;55.14;100785.44;5030137;28;20055;-69
2023/12/01 06:57:15;;;;;;;29.35;9.85;;;;;;;-5.03;55.16;100786.66;5023818;28;20431;-69
2023/12/01 06:59:40;;;;;;;22.60;10.13;;;;;;;-5.09;54.59;100789.06;5030803;28;20039;-66
2023/12/01 07:02:06;;;;;;;28.45;11.23;;;;;;;-5.08;55.08;100790.75;5025738;28;20407;-67
2023/12/01 07:04:32;;;;;;;26.15;11.10;;;;;;;-5.02;54.97;100801.97;5028606;28;20056;-67
2023/12/01 07:07:00;;;;;;;23.80;9.90;;;;;;;-4.85;54.68;100798.94;5012118;28;20519;-68
2023/12/01 07:09:29;;;;;;;27.20;11.40;;;;;;;-5.03;55.02;100807.03;5029827;28;20143;-68
2023/12/01 07:11:54;;;;;;;25.05;10.45;;;;;;;-5.08;54.44;100811.16;5028338;28;20481;-67
2023/12/01 07:14:23;;;;;;;23.20;11.15;;;;;;;-4.97;54.76;100810.59;5021710;28;22415;-66
2023/12/01 07:16:49;;;;;;;30.20;10.35;;;;;;;-4.99;54.81;100811.34;5030970;28;20029;-71
2023/12/01 07:19:16;;;;;;;21.10;10.27;;;;;;;-5.00;54.60;100815.59;5024829;28;20056;-70
2023/12/01 07:21:45;;;;;;;27.50;10.07;;;;;;;-5.13;54.99;100821.22;5011612;28;20539;-72
2023/12/01 07:24:10;;;;;;;24.20;11.60;;;;;;;-4.84;54.44;100821.91;5023478;28;20045;-72
2023/12/01 07:26:36;;;;;;;30.00;12.82;;;;;;;-4.90;54.73;100816.69;5028742;28;20144;-73
2023/12/01 07:29:04;;;;;;;27.38;10.57;;;;;;;-4.90;54.62;100815.81;5024521;28;20234;-74
2023/12/01 07:31:37;;;;;;;26.50;11.35;;;;;;;-4.77;54.63;100823.78;5030521;28;20039;-71
2023/12/01 07:34:03;;;;;;;36.92;11.55;;;;;;;-4.67;54.80;100822.28;5024747;28;20056;-72
2023/12/01 07:36:29;;;;;;;24.23;10.02;;;;;;;-4.60;54.37;100830.94;5029655;28;20029;-71
2023/12/01 07:38:54;;;;;;;29.40;11.48;;;;;;;-4.69;54.19;100838.41;5028295;28;20041;-73
2023/12/01 07:41:21;;;;;;;33.83;11.18;;;;;;;-4.63;54.52;100843.63;5024077;28;20051;-75
2023/12/01 07:43:47;;;;;;;28.02;11.68;;;;;;;-4.76;53.95;100843.34;5029867;28;20466;-68
2023/12/01 07:46:13;;;;;;;26.48;10.02;;;;;;;-4.71;54.18;100851.09;5022412;28;20061;-69
2023/12/01 07:48:38;;;;;;;25.08;10.70;;;;;;;-4.80;54.30;100848.34;5028436;28;20075;-71
2023/12/01 07:51:07;;;;;;;30.40;11.38;;;;;;;-4.86;54.40;100843.94;5024120;28;20032;-68
2023/12/01 07:53:34;;;;;;;25.52;11.70;;;;;;;-4.81;54.85;100849.16;5009229;28;20572;-68
2023/12/01 07:56:00;;;;;;;29.85;12.10;;;;;;;-4.82;55.18;100853.41;5031161;28;20033;-72
2023/12/01 07:58:26;;;;;;;29.02;11.57;;;;;;;-4.77;55.08;100856.06;5021997;28;20048;-73
2023/12/01 08:00:52;;;;;;;26.98;11.95;;;;;;;-4.72;54.98;100854.50;5042003;28;20037;-68
2023/12/01 08:03:18;;;;;;;31.17;11.98;;;;;;;-4.79;55.29;100856.03;5034184;28;20066;-68
2023/12/01 08:05:44;;;;;;;33.33;13.13;;;;;;;-4.75;54.58;100855.25;5042712;28;20036;-68
2023/12/01 08:08:10;;;;;;;26.75;11.23;;;;;;;-5.13;55.89;100852.69;5022249;28;20048;-70
2023/12/01 08:10:36;;;;;;;33.25;13.07;;;;;;;-4.74;55.26;100857.00;5029243;28;20028;-70
2023/12/01 08:13:01;;;;;;;31.00;11.40;;;;;;;-4.65;54.46;100865.69;5027942;28;20048;-69
2023/12/01 08:15:27;;;;;;;32.55;12.88;;;;;;;-4.63;54.77;100880.19;5023351;28;20055;-68
2023/12/01 08:17:52;;;;;;;28.23;11.43;;;;;;;-4.65;54.56;100883.56;5026944;28;20071;-67
2023/12/01 08:20:18;;;;;;;28.05;13.27;;;;;;;-4.62;54.34;100878.50;5024567;28;20048;-67
2023/12/01 08:22:46;;;;;;;29.92;12.43;;;;;;;-4.57;54.43;100893.09;5027943;28;20052;-67
2023/12/01 08:25:15;;;;;;;32.65;13.43;;;;;;;-4.38;54.43;100891.81;5022646;28;20059;-65
2023/12/01 08:27:41;;;;;;;30.08;12.18;;;;;;;-4.31;54.03;100888.56;5029039;28;20044;-66
2023/12/01 08:30:07;;;;;;;26.38;11.23;;;;;;;-4.05;54.18;100888.25;5023625;28;20059;-66
2023/12/01 08:32:33;;;;;;;30.50;12.55;;;;;;;-3.83;54.08;100886.09;5027894;28;20114;-65
2023/12/01 08:34:59;;;;;;;33.95;12.85;;;;;;;-3.78;53.22;100887.06;5027654;28;20130;-65
2023/12/01 08:37:24;;;;;;;27.40;12.27;;;;;;;-3.67;53.26;100888.16;5022419;28;20037;-66
2023/12/01 08:39:50;;;;;;;32.03;13.85;;;;;;;-3.55;53.12;100883.25;5028307;28;20216;-67
2023/12/01 08:42:17;;;;;;;27.33;11.68;;;;;;;-3.38;53.14;100880.16;5025783;28;20020;-64
2023/12/01 08:44:42;;;;;;;31.48;13.23;;;;;;;-3.39;51.84;100894.59;5028736;28;20494;-65
2023/12/01 08:47:13;;;;;;;30.92;14.70;;;;;;;-3.43;52.58;100891.97;5025265;28;20029;-65
2023/12/01 08:49:41;;;;;;;31.95;13.73;;;;;;;-3.43;52.19;100892.81;5028186;28;20606;-66
2023/12/01 08:52:07;;;;;;;28.33;12.68;;;;;;;-3.39;52.51;100891.19;5027562;28;20083;-66
2023/12/01 08:54:34;;;;;;;27.55;13.32;;;;;;;-3.50;51.53;100891.00;5024524;28;20067;-65
2023/12/01 08:56:59;;;;;;;27.67;11.95;;;;;;;-3.55;52.39;100884.94;5011534;28;20037;-66
2023/12/01 08:59:25;;;;;;;32.10;13.75;;;;;;;-3.44;52.80;100892.81;5013460;28;20129;-65
2023/12/01 09:01:50;;;;;;;32.75;12.52;;;;;;;-3.15;52.79;100888.22;5025990;28;20037;-65
2023/12/01 09:04:16;;;;;;;30.17;13.43;;;;;;;-2.33;51.89;100903.97;5021745;28;20102;-66
2023/12/01 09:06:41;;;;;;;35.55;13.68;;;;;;;-2.44;50.61;100905.50;5007518;28;20510;-65
2023/12/01 09:09:07;;;;;;;28.63;12.98;;;;;;;-2.30;50.23;100909.13;5026313;28;20614;-64
2023/12/01 09:11:33;;;;;;;30.73;14.07;;;;;;;-1.96;49.68;100906.97;5022322;28;20116;-65
2023/12/01 09:13:58;;;;;;;30.45;14.50;;;;;;;-1.73;48.42;100906.38;5026848;28;20439;-64
2023/12/01 09:16:24;;;;;;;28.48;11.85;;;;;;;-1.45;48.81;100899.88;5020334;28;20033;-64
2023/12/01 09:18:50;;;;;;;27.65;11.55;;;;;;;-0.99;47.30;100911.44;5026891;28;20086;-64
2023/12/01 09:21:17;;;;;;;23.08;10.27;;;;;;;-1.26;46.60;100918.88;5020642;28;20063;-65
2023/12/01 09:23:44;;;;;;;30.33;11.85;;;;;;;-1.53;47.00;100920.31;5026578;28;20043;-64
2023/12/01 09:26:17;;;;;;;20.90;10.75;;;;;;;-1.81;47.89;100917.41;5024165;28;20028;-63
2023/12/01 09:28:42;;;;;;;28.90;12.10;;;;;;;-2.12;48.36;100916.19;5025788;28;20095;-65
2023/12/01 09:31:09;;;;;;;23.33;10.13;;;;;;;-2.06;48.22;100926.50;5029321;28;20880;-63
2023/12/01 09:33:34;;;;;;;28.77;11.25;;;;;;;-1.93;48.38;100922.41;5013440;28;20057;-64
2023/12/01 09:36:00;;;;;;;30.65;11.90;;;;;;;-1.64;48.51;100924.47;5028656;28;20029;-64
2023/12/01 09:38:25;;;;;;;33.75;12.52;;;;;;;-1.63;47.78;100921.91;5021794;28;20573;-65
2023/12/01 09:40:51;;;;;;;29.63;11.50;;;;;;;-1.31;47.77;100923.06;5010826;28;20037;-63
2023/12/01 09:43:18;;;;;;;25.15;12.25;;;;;;;-1.12;47.22;100924.97;5019646;28;20052;-65
2023/12/01 09:45:44;;;;;;;28.83;12.38;;;;;;;-1.24;45.93;100924.84;5027782;28;20070;-64
2023/12/01 09:48:12;;;;;;;29.73;12.38;;;;;;;-1.02;46.90;100916.56;5026379;28;20100;-65
2023/12/01 09:50:37;;;;;;;23.63;10.27;;;;;;;-0.72;45.80;100920.22;5015711;28;20114;-64
2023/12/01 09:53:03;;;;;;;22.70;10.82;;;;;;;-0.67;45.23;100921.09;5013436;28;20049;-65
2023/12/01 09:55:29;;;;;;;28.45;11.95;;;;;;;-0.31;44.41;100922.19;5021640;28;20063;-65
2023/12/01 09:57:56;;;;;;;24.15;10.38;;;;;;;-0.20;44.71;100925.69;5023287;28;20049;-65
2023/12/01 10:00:22;;;;;;;28.45;11.57;;;;;;;-0.16;44.20;100916.28;5020442;28;20045;-65
2023/12/01 10:02:51;;;;;;;30.60;10.68;;;;;;;-0.32;44.32;100917.91;5022509;28;20045;-64
2023/12/01 10:05:18;;;;;;;23.65;10.50;;;;;;;-0.21;44.01;100908.56;5022177;28;20040;-65
2023/12/01 10:07:45;;;;;;;25.75;11.68;;;;;;;-0.01;43.63;100912.94;5024890;28;20053;-65
2023/12/01 10:10:38;;;;;;;28.00;12.00;;;;;;;-0.14;44.65;100914.59;5024517;28;20060;-66
2023/12/01 10:13:04;;;;;;;32.17;12.85;;;;;;;-0.03;43.75;100918.06;5020128;28;20117;-65
2023/12/01 10:15:39;;;;;;;32.92;12.90;;;;;;;-0.15;44.40;100910.28;5020752;28;20544;-65
2023/12/01 10:18:19;;;;;;;25.77;11.48;;;;;;;0.15;45.51;100913.88;5024575;28;20056;-66
2023/12/01 10:20:57;;;;;;;25.65;11.57;;;;;;;0.17;44.81;100910.44;5026194;28;20033;-65
2023/12/01 10:23:23;;;;;;;28.17;13.13;;;;;;;0.15;44.77;100921.56;5025136;28;20069;-65
2023/12/01 10:25:50;;;;;;;25.58;12.15;;;;;;;-0.14;43.80;100920.56;5023218;28;20544;-65
2023/12/01 10:28:20;;;;;;;23.58;12.10;;;;;;;-0.05;44.24;100914.63;5014891;28;20128;-65
2023/12/01 10:30:57;;;;;;;24.63;11.10;;;;;;;-0.02;44.08;100918.91;5037884;28;20033;-64
2023/12/01 10:33:24;;;;;;;26.73;11.95;;;;;;;-0.21;44.51;100917.97;5012761;28;20084;-64
2023/12/01 10:36:02;;;;;;;32.55;13.18;;;;;;;-0.40;44.66;100912.72;5026553;28;20558;-66
2023/12/01 10:38:31;;;;;;;27.80;13.68;;;;;;;-0.66;45.42;100916.81;5020419;28;20098;-64
2023/12/01 10:40:58;;;;;;;30.52;14.15;;;;;;;-0.78;46.06;100915.03;5025399;28;20024;-64
2023/12/01 10:43:24;;;;;;;27.10;12.35;;;;;;;-0.78;47.12;100917.59;5017577;28;20531;-65
2023/12/01 10:45:49;;;;;;;28.58;12.93;;;;;;;-0.67;47.52;100915.97;5004285;28;20037;-64
2023/12/01 10:48:20;;;;;;;22.50;10.68;;;;;;;-0.49;46.87;100922.09;5022373;28;20036;-64
2023/12/01 10:50:47;;;;;;;25.45;12.38;;;;;;;-0.37;46.88;100915.31;5028443;28;20044;-64
2023/12/01 10:53:15;;;;;;;38.00;17.60;;;;;;;-0.32;47.10;100910.22;5027977;28;20056;-65
2023/12/01 10:55:50;;;;;;;32.10;13.25;;;;;;;-0.42;47.34;100914.41;5025149;28;20134;-65
2023/12/01 10:58:21;;;;;;;29.70;13.20;;;;;;;-0.64;46.91;100910.88;5021384;28;20176;-64
2023/12/01 11:00:53;;;;;;;27.52;12.98;;;;;;;-0.72;47.88;100909.09;5026389;28;20055;-65
2023/12/01 11:03:22;;;;;;;29.27;13.02;;;;;;;-0.83;46.83;100906.44;5022133;28;20048;-65
2023/12/01 11:05:51;;;;;;;30.83;12.65;;;;;;;-0.78;47.65;100899.63;5027329;28;20602;-66
2023/12/01 11:08:43;;;;;;;29.95;13.63;;;;;;;-0.53;47.48;100904.94;5022776;28;20140;-64
2023/12/01 11:11:28;;;;;;;29.07;12.70;;;;;;;-0.36;47.67;100911.03;5028489;28;20112;-64
2023/12/01 11:14:21;;;;;;;28.92;13.95;;;;;;;-0.02;47.04;100906.06;5026800;28;20053;-64
2023/12/01 11:16:47;;;;;;;28.48;12.38;;;;;;;0.51;46.02;100900.25;5025068;28;20148;-65